Time;durP1;ratioP1;P1;durP2;ratioP2;P2;SDS_P1;SDS_P2;PMS_P1;PMS_P2;Temp;Humidity;BMP_temperature;BMP_pressure;BME280_temperature;BME280_humidity;BME280_pressure;Samples;Min_cycle;Max_cycle;Signal;HPM_P1;HPM_P2
2023/07/22 00:00:51;;;;;;;2.70;2.60;;;18.90;99.90;;;19.26;82.38;101256.41;5053383;28;20479;-68
2023/07/22 00:03:19;;;;;;;2.58;2.47;;;18.90;99.90;;;19.22;83.09;101270.84;5056066;28;20073;-68
2023/07/22 00:05:49;;;;;;;2.70;2.60;;;18.80;99.90;;;19.16;83.50;101273.72;5055687;28;20041;-68
2023/07/22 00:08:18;;;;;;;2.60;2.50;;;18.80;99.90;;;19.18;83.26;101278.09;5055738;28;20402;-67
2023/07/22 00:10:46;;;;;;;2.70;2.60;;;18.80;99.90;;;19.06;83.10;101270.47;5055666;28;20548;-68
2023/07/22 00:13:14;;;;;;;2.60;2.50;;;18.60;99.90;;;19.07;83.22;101284.72;5051732;28;20049;-68
2023/07/22 00:15:43;;;;;;;2.60;2.50;;;18.60;99.90;;;18.97;83.36;101265.38;5055539;28;20465;-68
2023/07/22 00:18:11;;;;;;;2.78;2.67;;;18.60;99.90;;;18.85;84.02;101261.28;5056018;28;20045;-68
2023/07/22 00:20:40;;;;;;;2.60;2.50;;;18.40;99.90;;;18.76;84.30;101256.25;5052249;28;20073;-68
2023/07/22 00:23:10;;;;;;;2.60;2.50;;;18.30;99.90;;;18.74;84.48;101244.69;5055443;28;20037;-68
2023/07/22 00:25:39;;;;;;;2.92;2.83;;;18.30;99.90;;;18.75;83.96;101242.91;5055381;28;20056;-68
2023/07/22 00:28:07;;;;;;;2.65;2.55;;;18.30;99.90;;;18.75;83.87;101246.47;5055270;28;20068;-67
2023/07/22 00:30:35;;;;;;;2.50;2.40;;;18.30;99.90;;;18.80;83.20;101244.50;5054147;28;20131;-68
2023/07/22 00:33:05;;;;;;;2.60;2.50;;;18.30;99.90;;;18.79;83.03;101245.41;5055530;28;20052;-68
2023/07/22 00:35:34;;;;;;;2.88;2.78;;;18.40;99.90;;;18.75;82.33;101251.81;5053920;28;20049;-68
2023/07/22 00:38:03;;;;;;;2.50;2.40;;;18.30;99.90;;;18.67;82.21;101243.13;5051657;28;20060;-68
2023/07/22 00:40:33;;;;;;;2.60;2.50;;;18.30;99.90;;;18.70;81.88;101248.38;5055128;28;20099;-68
2023/07/22 00:43:02;;;;;;;2.65;2.55;;;18.30;99.90;;;18.73;81.71;101248.31;5055353;28;20407;-68
2023/07/22 00:45:30;;;;;;;2.83;2.72;;;18.30;99.90;;;18.76;81.21;101248.19;5054742;28;20054;-67
2023/07/22 00:47:59;;;;;;;2.75;2.65;;;18.40;99.90;;;18.79;81.15;101241.88;5055178;28;20441;-67
2023/07/22 00:50:28;;;;;;;2.45;2.35;;;18.40;99.90;;;18.73;80.86;101229.53;5055219;28;20044;-68
2023/07/22 00:52:56;;;;;;;2.60;2.50;;;18.40;99.90;;;18.79;80.53;101237.38;5055108;28;20055;-68
2023/07/22 00:55:26;;;;;;;2.60;2.50;;;18.40;99.90;;;18.83;80.22;101227.44;5053819;28;20402;-68
2023/07/22 00:57:56;;;;;;;2.60;2.50;;;18.40;99.90;;;18.84;80.38;101229.19;5070626;28;20053;-67
2023/07/22 01:00:25;;;;;;;2.95;2.85;;;18.50;99.90;;;18.89;80.22;101230.78;5051715;28;20103;-67
2023/07/22 01:02:53;;;;;;;2.70;2.60;;;18.50;99.90;;;18.89;80.58;101228.09;5054948;28;20116;-68
2023/07/22 01:05:22;;;;;;;2.58;2.47;;;18.50;99.90;;;18.80;81.62;101231.09;5051564;28;20099;-68
2023/07/22 01:07:51;;;;;;;3.28;3.17;;;18.50;99.90;;;18.73;81.89;101209.91;5054859;28;20065;-68
2023/07/22 01:10:20;;;;;;;2.90;2.80;;;18.50;99.90;;;18.89;81.69;101229.94;5062109;28;20057;-67
2023/07/22 01:12:48;;;;;;;2.50;2.40;;;18.50;99.90;;;18.82;79.93;101215.84;5054803;28;20048;-67
2023/07/22 01:15:18;;;;;;;7.63;4.57;;;18.50;99.90;;;18.86;79.51;101221.97;5054707;28;20063;-68
2023/07/22 01:17:47;;;;;;;2.70;2.60;;;18.50;99.90;;;18.91;79.25;101215.53;5054751;28;20083;-68
2023/07/22 01:20:18;;;;;;;2.70;2.60;;;18.50;99.90;;;18.96;79.15;101222.53;5049524;28;20052;-68
2023/07/22 01:22:52;;;;;;;2.67;2.58;;;18.60;99.90;;;18.72;80.28;101186.69;5050154;28;20086;-69
2023/07/22 01:25:22;;;;;;;2.80;2.70;;;18.50;99.90;;;18.88;80.67;101215.63;5054580;28;20437;-68
2023/07/22 01:27:52;;;;;;;2.63;2.53;;;18.50;99.90;;;18.78;80.31;101213.28;5069279;28;20045;-68
2023/07/22 01:30:21;;;;;;;2.75;2.65;;;18.40;99.90;;;18.34;81.48;101155.75;5054475;28;20041;-68
2023/07/22 01:32:50;;;;;;;2.30;2.20;;;18.30;99.90;;;18.63;81.91;101206.63;5054131;28;20430;-68
2023/07/22 01:35:19;;;;;;;2.55;2.45;;;18.20;99.90;;;18.58;82.90;101205.88;5050222;28;20064;-68
2023/07/22 01:37:47;;;;;;;2.90;2.80;;;18.20;99.90;;;18.49;83.09;101208.88;5069829;28;20099;-67
2023/07/22 01:40:18;;;;;;;2.75;2.65;;;18.10;99.90;;;18.45;82.76;101206.31;5053054;28;20057;-67
2023/07/22 01:42:46;;;;;;;;;;;18.00;99.90;;;17.73;81.93;101091.66;5054766;28;20044;-67
2023/07/22 01:45:15;;;;;;;2.70;2.60;;;17.90;99.90;;;18.30;82.04;101194.28;5052867;28;19928;-68
2023/07/22 01:47:43;;;;;;;2.70;2.60;;;17.90;99.90;;;18.21;81.79;101173.13;5054062;28;20383;-68
2023/07/22 01:50:11;;;;;;;2.80;2.70;;;17.90;99.90;;;18.18;81.78;101173.22;5054098;28;20052;-67
2023/07/22 01:52:40;;;;;;;2.70;2.60;;;17.90;99.90;;;18.37;81.45;101192.28;5054018;28;20538;-68
2023/07/22 01:55:10;;;;;;;2.65;2.55;;;17.90;99.90;;;18.44;81.15;101197.44;5053917;28;20508;-68
2023/07/22 01:57:42;;;;;;;2.65;2.55;;;18.00;99.90;;;18.56;81.75;101193.50;5048764;28;20053;-68
2023/07/22 02:00:12;;;;;;;2.65;2.55;;;18.10;99.90;;;18.64;81.95;101200.34;5053914;28;20044;-68
2023/07/22 02:02:40;;;;;;;2.85;2.75;;;18.30;99.90;;;18.63;81.81;101190.56;5053855;28;20053;-68
2023/07/22 02:05:10;;;;;;;2.55;2.45;;;18.20;99.90;;;18.68;82.45;101191.28;5053661;28;20425;-68
2023/07/22 02:07:39;;;;;;;2.85;2.75;;;18.30;99.90;;;18.72;81.87;101192.94;5053484;28;20055;-68
2023/07/22 02:10:09;;;;;;;3.08;2.97;;;18.30;99.90;;;18.70;80.98;101193.91;5052379;28;20059;-68
2023/07/22 02:12:37;;;;;;;2.30;2.20;;;18.30;99.90;;;18.67;79.98;101192.22;5053619;28;20044;-68
2023/07/22 02:15:10;;;;;;;2.40;2.30;;;18.30;99.90;;;18.66;79.67;101195.81;5052055;28;20045;-68
2023/07/22 02:17:39;;;;;;;2.90;2.80;;;18.30;99.90;;;18.69;79.41;101190.38;5062978;28;20140;-68
2023/07/22 02:20:09;;;;;;;2.88;2.78;;;18.30;99.90;;;18.72;79.22;101187.56;5068837;28;20488;-68
2023/07/22 02:22:38;;;;;;;2.88;2.78;;;18.30;99.90;;;18.75;79.61;101187.50;5053589;28;20044;-67
2023/07/22 02:25:10;;;;;;;2.55;2.45;;;18.30;99.90;;;18.58;80.03;101187.13;5050797;28;20053;-68
2023/07/22 02:27:40;;;;;;;2.38;2.28;;;18.20;99.90;;;18.40;80.41;101178.78;5068825;28;20049;-68
2023/07/22 02:30:11;;;;;;;3.13;3.03;;;18.00;99.90;;;18.32;81.31;101176.34;5052125;28;20052;-68
2023/07/22 02:32:40;;;;;;;;;;;17.90;99.90;;;18.33;82.24;101174.56;5050122;28;20139;-68
2023/07/22 02:35:10;;;;;;;2.60;2.50;;;17.90;99.90;;;18.37;82.57;101168.19;5053288;28;19927;-68
2023/07/22 02:37:39;;;;;;;2.60;2.50;;;17.90;99.90;;;18.37;82.32;101163.69;5053314;28;20049;-68
2023/07/22 02:40:10;;;;;;;2.83;2.72;;;17.90;99.90;;;18.44;82.19;101170.66;5053079;28;20041;-68
2023/07/22 02:42:39;;;;;;;2.80;2.70;;;18.00;99.90;;;18.43;82.25;101174.22;5052851;28;20057;-68
2023/07/22 02:45:10;;;;;;;2.63;2.53;;;18.00;99.90;;;18.39;82.16;101167.19;5053094;28;20041;-68
2023/07/22 02:47:39;;;;;;;2.53;2.42;;;17.90;99.90;;;18.40;82.16;101168.97;5051823;28;20056;-68
2023/07/22 02:50:08;;;;;;;2.70;2.60;;;18.00;99.90;;;17.70;81.48;101041.78;5064305;28;20056;-67
2023/07/22 02:52:37;;;;;;;3.10;2.97;;;18.00;99.90;;;18.00;80.92;101102.34;5052444;28;20072;-68
2023/07/22 02:55:10;;;;;;;2.40;2.30;;;18.00;99.90;;;18.54;81.29;101165.88;5049448;28;20041;-68
2023/07/22 02:57:40;;;;;;;2.72;2.63;;;18.10;99.90;;;18.52;80.57;101171.28;5068368;28;20052;-67
2023/07/22 03:00:12;;;;;;;2.50;2.40;;;18.10;99.90;;;18.46;79.44;101174.16;5051598;28;20045;-68
2023/07/22 03:02:41;;;;;;;2.70;2.60;;;18.10;99.90;;;18.46;79.04;101174.16;5051903;28;20060;-68
2023/07/22 03:05:10;;;;;;;2.47;2.38;;;18.10;99.90;;;18.33;78.87;101164.69;5051615;28;20048;-68
2023/07/22 03:07:39;;;;;;;2.65;2.55;;;18.10;99.90;;;18.52;78.87;101165.94;5049270;28;20441;-68
2023/07/22 03:10:09;;;;;;;2.60;2.50;;;18.20;99.90;;;18.58;78.85;101157.66;5052737;28;20041;-68
2023/07/22 03:12:38;;;;;;;3.03;2.92;;;18.20;99.90;;;18.66;78.91;101155.63;5052749;28;20406;-68
2023/07/22 03:15:12;;;;;;;2.50;2.40;;;18.30;99.90;;;18.67;80.33;101164.53;5052745;28;20049;-68
2023/07/22 03:17:42;;;;;;;2.33;2.22;;;18.30;99.90;;;18.61;80.14;101168.28;5035154;28;20037;-68
2023/07/22 03:20:14;;;;;;;2.90;2.80;;;18.20;99.90;;;18.55;81.67;101156.88;5064778;28;20459;-68
2023/07/22 03:22:43;;;;;;;2.70;2.60;;;18.20;99.90;;;18.64;80.95;101170.00;5048102;28;20409;-68
2023/07/22 03:25:12;;;;;;;2.80;2.70;;;18.20;99.90;;;18.52;79.51;101179.31;5052375;28;20093;-68
2023/07/22 03:27:41;;;;;;;3.15;3.05;;;18.20;99.90;;;18.47;79.21;101175.91;5052283;28;20068;-67
2023/07/22 03:30:15;;;;;;;2.85;2.75;;;18.10;99.90;;;18.39;78.83;101151.13;5052579;28;20045;-68
2023/07/22 03:32:45;;;;;;;2.80;2.70;;;18.10;99.90;;;18.52;78.65;101182.00;5050885;28;20106;-68
2023/07/22 03:35:13;;;;;;;2.60;2.50;;;18.10;99.90;;;18.53;78.47;101186.41;5052453;28;20120;-68
2023/07/22 03:37:42;;;;;;;2.78;2.67;;;18.20;99.90;;;18.51;78.11;101180.22;5047452;28;20156;-68
2023/07/22 03:40:19;;;;;;;2.65;2.55;;;18.20;99.90;;;18.54;77.64;101181.94;5051254;28;20052;-68
2023/07/22 03:42:48;;;;;;;2.95;2.85;;;18.20;99.90;;;18.55;77.63;101189.94;5052545;28;20049;-68
2023/07/22 03:45:18;;;;;;;2.95;2.85;;;18.20;99.90;;;18.50;77.35;101186.53;5051177;28;20059;-67
2023/07/22 03:47:50;;;;;;;2.55;2.45;;;18.20;99.90;;;18.55;77.45;101189.03;5052093;28;20064;-67
2023/07/22 03:50:19;;;;;;;2.72;2.63;;;18.10;99.90;;;18.53;77.66;101191.78;5048556;28;20052;-68
2023/07/22 03:52:48;;;;;;;2.78;2.67;;;18.10;99.90;;;18.58;78.11;101183.59;5052034;28;20029;-68
2023/07/22 03:55:16;;;;;;;2.83;2.72;;;18.20;99.90;;;18.58;78.74;101181.78;5067720;28;20045;-68
2023/07/22 03:57:44;;;;;;;2.80;2.70;;;18.20;99.90;;;18.60;79.25;101181.75;5048895;28;20816;-69
2023/07/22 04:00:13;;;;;;;2.50;2.40;;;18.20;99.90;;;18.62;79.64;101174.53;5052371;28;20436;-70
2023/07/22 04:02:43;;;;;;;2.80;2.70;;;18.20;99.90;;;18.72;79.81;101187.56;5052289;28;20099;-68
2023/07/22 04:05:12;;;;;;;3.15;3.05;;;18.30;99.90;;;18.70;80.58;101176.03;5053660;28;20107;-68
2023/07/22 04:07:41;;;;;;;2.60;2.50;;;18.30;99.90;;;18.82;81.26;101182.78;5071334;28;20159;-68
2023/07/22 04:10:09;;;;;;;2.83;2.72;;;18.40;99.90;;;18.73;81.92;101175.94;5054771;28;20044;-68
2023/07/22 04:12:38;;;;;;;2.90;2.80;;;18.30;99.90;;;18.75;82.20;101176.78;5054339;28;20057;-68
2023/07/22 04:15:11;;;;;;;3.25;3.15;;;18.30;99.90;;;18.70;82.31;101173.34;5052918;28;20075;-68
2023/07/22 04:17:40;;;;;;;2.72;2.63;;;18.30;99.90;;;18.62;82.77;101175.41;5055915;28;20429;-68
2023/07/22 04:20:12;;;;;;;2.95;2.85;;;18.20;99.90;;;17.91;83.04;101048.25;5055582;28;20124;-68
2023/07/22 04:22:40;;;;;;;2.67;2.58;;;18.20;99.90;;;18.58;83.90;101163.00;5055561;28;20394;-68
2023/07/22 04:25:09;;;;;;;2.85;2.75;;;18.20;99.90;;;18.55;84.33;101159.56;5055790;28;20048;-69
2023/07/22 04:27:38;;;;;;;2.57;2.47;;;18.20;99.90;;;18.56;84.79;101166.69;5055272;28;20055;-68
2023/07/22 04:30:09;;;;;;;2.72;2.63;;;18.10;99.90;;;18.60;85.03;101171.88;5055650;28;20076;-68
2023/07/22 04:32:38;;;;;;;3.15;3.05;;;18.20;99.90;;;18.69;85.01;101174.28;5052089;28;20115;-68
2023/07/22 04:35:10;;;;;;;3.67;3.47;;;18.30;99.90;;;18.74;85.22;101164.28;5055296;28;20389;-68
2023/07/22 04:37:38;;;;;;;;;;;18.30;99.90;;;18.70;85.93;101175.13;5055695;28;20060;-68
2023/07/22 04:40:13;;;;;;;2.78;2.67;;;18.40;99.90;;;18.79;86.00;101183.75;5055462;28;19967;-68
2023/07/22 04:42:42;;;;;;;3.28;3.03;;;18.40;99.90;;;18.66;86.67;101170.84;5055222;28;20048;-68
2023/07/22 04:45:12;;;;;;;2.75;2.65;;;18.30;99.90;;;18.58;87.27;101152.31;5055057;28;20147;-68
2023/07/22 04:47:41;;;;;;;3.13;3.03;;;18.30;99.90;;;18.68;87.88;101164.47;5051299;28;20037;-68
2023/07/22 04:50:11;;;;;;;3.30;3.10;;;18.30;99.90;;;18.70;88.20;101169.78;5055324;28;20041;-68
2023/07/22 04:52:43;;;;;;;2.50;2.40;;;18.30;99.90;;;18.76;88.45;101174.94;5055495;28;20065;-68
2023/07/22 04:55:12;;;;;;;2.83;2.72;;;18.30;99.90;;;18.81;88.71;101173.00;5055444;28;20037;-68
2023/07/22 04:57:42;;;;;;;2.80;2.70;;;18.40;99.90;;;18.78;89.17;101170.41;5055106;28;20055;-68
2023/07/22 05:00:14;;;;;;;3.28;3.17;;;18.40;99.90;;;18.77;89.56;101172.25;5055051;28;20097;-69
2023/07/22 05:02:43;;;;;;;4.22;3.92;;;18.40;99.90;;;18.86;89.60;101173.72;5051396;28;20049;-69
2023/07/22 05:05:13;;;;;;;2.70;2.60;;;18.50;99.90;;;18.92;89.70;101174.41;5054703;28;20041;-69
2023/07/22 05:07:42;;;;;;;3.20;3.10;;;18.50;99.90;;;18.95;89.99;101169.88;5055055;28;20041;-68
2023/07/22 05:10:12;;;;;;;2.83;2.72;;;18.50;99.90;;;18.97;90.16;101171.53;5054661;28;20040;-68
2023/07/22 05:12:40;;;;;;;2.78;2.67;;;18.60;99.90;;;19.02;90.44;101169.59;5054881;28;20158;-69
2023/07/22 05:15:11;;;;;;;2.70;2.60;;;18.60;99.90;;;19.02;90.67;101161.56;5053920;28;20052;-69
2023/07/22 05:17:39;;;;;;;;;;;18.60;99.90;;;19.09;90.66;101171.13;5053913;28;20048;-69
2023/07/22 05:20:10;;;;;;;3.72;3.53;;;18.70;99.90;;;19.06;90.99;101165.88;5054362;28;19928;-69
2023/07/22 05:22:40;;;;;;;3.22;3.13;;;18.70;99.90;;;19.11;91.30;101168.38;5051250;28;20094;-69
2023/07/22 05:25:10;;;;;;;3.40;3.20;;;18.70;99.90;;;19.11;91.31;101171.94;5053363;28;20045;-69
2023/07/22 05:27:40;;;;;;;2.95;2.85;;;18.70;99.90;;;19.16;91.41;101161.97;5054213;28;20041;-68
2023/07/22 05:30:10;;;;;;;2.92;2.83;;;18.70;99.90;;;19.18;91.79;101164.59;5054241;28;20071;-69
2023/07/22 05:32:58;;;;;;;2.88;2.78;;;18.80;99.90;;;19.18;91.82;101162.75;5052202;28;20141;-68
2023/07/22 05:35:27;;;;;;;2.45;2.35;;;18.80;99.90;;;19.14;92.13;101165.63;5052606;28;20053;-69
2023/07/22 05:37:56;;;;;;;3.45;3.25;;;18.80;99.90;;;19.20;92.34;101160.03;5054122;28;20545;-69
2023/07/22 05:40:25;;;;;;;2.77;2.67;;;18.80;99.90;;;19.25;92.26;101160.75;5054570;28;20536;-69
2023/07/22 05:42:53;;;;;;;2.88;2.78;;;18.80;99.90;;;19.20;92.38;101150.16;5053993;28;20040;-68
2023/07/22 05:45:21;;;;;;;3.75;3.55;;;18.90;99.90;;;19.26;92.50;101159.84;5054018;28;20095;-68
2023/07/22 05:47:50;;;;;;;3.42;3.22;;;18.90;99.90;;;19.31;92.32;101155.16;5053732;28;20052;-69
2023/07/22 05:50:18;;;;;;;10.45;3.47;;;18.90;99.90;;;19.31;92.45;101158.72;5033112;28;20045;-68
2023/07/22 05:52:47;;;;;;;2.78;2.67;;;18.90;99.90;;;19.36;92.33;101162.16;5053715;28;20453;-69
2023/07/22 05:55:17;;;;;;;2.70;2.60;;;19.00;99.90;;;19.41;92.24;101165.56;5050617;28;20148;-68
2023/07/22 05:57:46;;;;;;;4.20;3.85;;;19.00;99.90;;;19.40;92.05;101165.59;5053688;28;20045;-69
2023/07/22 06:00:15;;;;;;;3.28;3.17;;;19.10;99.90;;;19.43;92.33;101160.13;5053635;28;20560;-68
2023/07/22 06:02:43;;;;;;;2.60;2.50;;;19.10;99.90;;;19.50;92.20;101158.97;5053343;28;20075;-68
2023/07/22 06:05:12;;;;;;;4.00;3.80;;;19.10;99.90;;;19.49;91.94;101152.72;5053511;28;20045;-69
2023/07/22 06:07:40;;;;;;;2.60;2.50;;;19.20;99.90;;;19.46;92.04;101146.59;5053879;28;20045;-68
2023/07/22 06:10:10;;;;;;;8.38;3.83;;;19.10;99.90;;;19.48;92.21;101147.41;5053452;28;20045;-68
2023/07/22 06:12:41;;;;;;;2.60;2.50;;;19.10;99.90;;;19.47;92.15;101138.47;5065308;28;20076;-69
2023/07/22 06:15:10;;;;;;;3.05;2.95;;;19.20;99.90;;;19.57;92.01;101152.44;5053869;28;20103;-69
2023/07/22 06:17:39;;;;;;;2.90;2.80;;;19.20;99.90;;;19.56;92.27;101173.06;5053230;28;20044;-69
2023/07/22 06:20:09;;;;;;;3.28;3.17;;;19.20;99.90;;;19.58;92.18;101154.19;5053544;28;20037;-68
2023/07/22 06:22:38;;;;;;;3.30;3.05;;;19.20;99.90;;;19.49;91.96;101151.88;5053296;28;20045;-69
2023/07/22 06:25:07;;;;;;;2.90;2.80;;;19.20;99.90;;;19.61;92.26;101152.28;5052087;28;20107;-68
2023/07/22 06:27:36;;;;;;;3.17;3.08;;;19.30;99.90;;;19.69;92.77;101152.88;5052186;28;20453;-68
2023/07/22 06:30:08;;;;;;;4.30;4.10;;;19.30;99.90;;;19.64;92.78;101144.13;5053281;28;20029;-68
2023/07/22 06:32:39;;;;;;;2.85;2.65;;;19.40;99.90;;;19.72;92.92;101152.75;5048560;28;20063;-68
2023/07/22 06:35:09;;;;;;;3.72;3.53;;;19.40;99.90;;;19.77;93.11;101150.78;5053375;28;20072;-69
2023/07/22 06:37:37;;;;;;;3.03;2.92;;;19.40;99.90;;;19.79;92.30;101162.34;5052959;28;20063;-69
2023/07/22 06:40:07;;;;;;;2.92;2.83;;;19.40;99.90;;;19.80;92.53;101147.97;5052139;28;20070;-69
2023/07/22 06:42:35;;;;;;;2.92;2.83;;;19.50;99.90;;;19.84;93.10;101148.72;5053504;28;20182;-68
2023/07/22 06:45:06;;;;;;;2.90;2.80;;;19.50;99.90;;;19.90;92.99;101158.38;5052786;28;20402;-69
2023/07/22 06:47:36;;;;;;;3.33;3.22;;;19.50;99.90;;;19.79;92.63;101159.66;5064376;28;20041;-68
2023/07/22 06:50:05;;;;;;;11.50;3.35;;;19.50;99.90;;;19.75;93.33;101152.66;5060511;28;20048;-69
2023/07/22 06:52:34;;;;;;;2.83;2.72;;;19.40;99.90;;;19.78;93.16;101160.56;5052654;28;20048;-69
2023/07/22 06:55:02;;;;;;;3.28;3.17;;;19.40;99.90;;;19.74;93.19;101152.72;5051710;28;20516;-69
2023/07/22 06:57:31;;;;;;;4.50;4.15;;;19.40;99.90;;;19.84;93.20;101162.16;5053183;28;20470;-69
2023/07/22 06:59:59;;;;;;;2.70;2.60;;;19.50;99.90;;;19.88;93.11;101161.09;5052959;28;20045;-68
2023/07/22 07:02:29;;;;;;;3.20;3.10;;;19.50;99.90;;;19.89;92.06;101162.88;5067586;28;20096;-68
2023/07/22 07:04:58;;;;;;;4.63;4.40;;;19.50;99.90;;;19.82;91.57;101172.09;5052669;28;20072;-69
2023/07/22 07:07:26;;;;;;;3.38;3.17;;;19.50;99.90;;;19.85;91.29;101169.28;5052398;28;20486;-69
2023/07/22 07:09:55;;;;;;;4.40;4.05;;;19.50;99.90;;;19.83;91.52;101164.91;5048809;28;20044;-69
2023/07/22 07:12:23;;;;;;;3.70;3.50;;;19.50;99.90;;;19.85;91.01;101169.28;5052434;28;20102;-69
2023/07/22 07:14:52;;;;;;;2.90;2.80;;;19.50;99.90;;;19.74;91.20;101147.34;5051326;28;20049;-69
2023/07/22 07:17:20;;;;;;;3.83;3.58;;;19.50;99.90;;;19.94;90.66;101182.34;5052344;28;20041;-69
2023/07/22 07:19:50;;;;;;;3.20;3.10;;;19.50;99.90;;;19.92;90.12;101170.78;5052143;28;20041;-69
2023/07/22 07:22:18;;;;;;;2.90;2.80;;;19.60;99.90;;;19.92;90.09;101175.31;5052604;28;20044;-69
2023/07/22 07:24:46;;;;;;;3.30;3.17;;;19.50;99.90;;;19.88;90.12;101163.78;5052941;28;20032;-69
2023/07/22 07:27:15;;;;;;;4.45;4.15;;;19.50;99.90;;;19.93;90.07;101163.63;5052201;28;20044;-69
2023/07/22 07:29:43;;;;;;;4.13;3.92;;;19.50;99.90;;;19.96;90.12;101156.31;5052260;28;20041;-69
2023/07/22 07:32:23;;;;;;;13.65;5.72;;;19.60;99.90;;;19.95;89.64;101156.38;5049600;28;20094;-69
2023/07/22 07:34:53;;;;;;;2.85;2.75;;;19.60;99.90;;;19.88;89.16;101158.41;5052583;28;20107;-69
2023/07/22 07:37:24;;;;;;;5.50;4.63;;;19.50;99.90;;;19.96;89.71;101169.75;5052092;28;20053;-69
2023/07/22 07:39:52;;;;;;;3.20;3.00;;;19.50;99.90;;;19.90;89.67;101171.81;5055119;28;20692;-69
2023/07/22 07:42:20;;;;;;;3.33;3.17;;;19.50;99.90;;;19.80;89.47;101153.34;5056138;28;20052;-69
2023/07/22 07:44:49;;;;;;;3.22;3.13;;;19.50;99.90;;;19.85;89.32;101158.53;5056425;28;20110;-69
2023/07/22 07:47:17;;;;;;;2.75;2.65;;;19.50;99.90;;;19.88;89.77;101153.03;5056017;28;20419;-69
2023/07/22 07:49:46;;;;;;;3.42;3.22;;;19.50;99.90;;;19.85;89.01;101163.91;5052298;28;20475;-69
2023/07/22 07:52:16;;;;;;;3.60;3.40;;;19.50;99.90;;;19.97;89.98;101157.19;5056035;28;20082;-69
2023/07/22 07:54:44;;;;;;;5.10;4.80;;;19.60;99.90;;;19.97;89.35;101146.47;5056242;28;20041;-69
2023/07/22 07:57:12;;;;;;;3.25;3.15;;;19.70;99.90;;;20.12;88.19;101159.28;5055982;28;20466;-69
2023/07/22 07:59:41;;;;;;;3.83;3.63;;;19.70;99.90;;;20.27;89.03;101158.72;5053439;28;20103;-69
2023/07/22 08:02:10;;;;;;;3.50;3.30;;;19.90;99.90;;;20.27;87.28;101151.53;5055881;28;20048;-69
2023/07/22 08:04:38;;;;;;;3.15;3.05;;;19.90;99.90;;;20.35;86.40;101164.66;5055801;28;20122;-69
2023/07/22 08:07:08;;;;;;;3.60;3.45;;;20.00;99.90;;;20.37;85.26;101147.56;5056294;28;20041;-69
2023/07/22 08:09:38;;;;;;;3.17;3.08;;;20.00;99.90;;;20.54;84.77;101155.81;5055922;28;20052;-69
2023/07/22 08:12:08;;;;;;;3.33;3.13;;;20.10;99.90;;;20.59;83.11;101136.81;5055941;28;20037;-69
2023/07/22 08:14:36;;;;;;;3.03;2.92;;;20.20;99.90;;;20.74;83.00;101144.22;5055953;28;20384;-69
2023/07/22 08:17:05;;;;;;;3.05;2.95;;;20.40;99.90;;;20.85;82.01;101143.81;5055329;28;20033;-69
2023/07/22 08:19:33;;;;;;;2.50;2.40;;;20.50;99.90;;;20.89;80.37;101150.75;5056056;28;20488;-69
2023/07/22 08:22:02;;;;;;;3.20;3.10;;;20.50;99.90;;;21.01;80.07;101152.97;5055525;28;20041;-69
2023/07/22 08:24:31;;;;;;;4.18;3.88;;;20.60;99.90;;;20.95;79.26;101155.88;5055738;28;20037;-69
2023/07/22 08:27:01;;;;;;;3.85;3.22;;;20.60;99.90;;;20.93;79.18;101147.91;5053814;28;20096;-68
2023/07/22 08:29:29;;;;;;;3.70;3.50;;;20.60;99.90;;;21.02;78.25;101149.38;5055407;28;20052;-69
2023/07/22 08:31:57;;;;;;;2.60;2.50;;;20.60;99.90;;;21.02;78.53;101131.38;5055706;28;20756;-69
2023/07/22 08:34:26;;;;;;;3.05;2.85;;;20.70;99.90;;;21.26;78.44;101159.94;5051554;28;20106;-68
2023/07/22 08:36:54;;;;;;;2.72;2.63;;;20.90;99.90;;;21.24;76.64;101159.13;5055375;28;20048;-69
2023/07/22 08:39:23;;;;;;;2.67;2.58;;;20.90;99.90;;;21.13;76.20;101136.31;5055426;28;20099;-69
2023/07/22 08:41:52;;;;;;;2.97;2.88;;;20.80;99.90;;;21.37;76.80;101146.88;5055178;28;20074;-69
2023/07/22 08:44:22;;;;;;;2.80;2.70;;;21.00;99.90;;;21.32;75.87;101153.41;5055074;28;20486;-69
2023/07/22 08:46:57;;;;;;;3.15;3.00;;;21.00;99.90;;;21.46;75.21;101150.97;5055364;28;20056;-69
2023/07/22 08:49:28;;;;;;;2.45;2.35;;;21.00;99.90;;;21.45;73.03;101146.53;5055092;28;20049;-69
2023/07/22 08:51:57;;;;;;;2.83;2.72;;;21.10;99.90;;;21.50;72.61;101156.13;5050722;28;20047;-69
2023/07/22 08:54:26;;;;;;;2.45;2.35;;;21.10;99.90;;;21.48;72.54;101149.97;5054876;28;20045;-69
2023/07/22 08:56:55;;;;;;;2.85;2.75;;;21.10;99.90;;;21.44;72.19;101140.28;5055141;28;20432;-69
2023/07/22 08:59:26;;;;;;;3.42;3.22;;;21.10;99.90;;;21.30;71.39;101149.91;5054915;28;20045;-69
2023/07/22 09:01:55;;;;;;;2.88;2.70;;;20.90;99.90;;;21.35;71.89;101155.97;5055125;28;20463;-69
2023/07/22 09:04:24;;;;;;;2.67;2.58;;;21.00;99.90;;;20.96;71.21;101067.09;5054692;28;20433;-69
2023/07/22 09:06:53;;;;;;;2.75;2.65;;;21.00;99.90;;;21.38;71.25;101143.25;5054680;28;20044;-69
2023/07/22 09:09:23;;;;;;;3.00;2.90;;;21.00;99.90;;;21.45;69.61;101143.84;5050754;28;20064;-69
2023/07/22 09:11:53;;;;;;;2.95;2.85;;;21.00;99.90;;;21.22;69.03;101092.84;5066699;28;20083;-69
2023/07/22 09:14:22;;;;;;;2.85;2.75;;;21.10;99.90;;;21.58;69.76;101142.38;5054421;28;20045;-69
2023/07/22 09:17:06;;;;;;;3.67;3.47;;;21.20;99.90;;;21.55;70.22;101148.75;5055048;28;20047;-69
2023/07/22 09:19:34;;;;;;;2.63;2.53;;;21.20;99.90;;;21.53;69.40;101150.63;5050766;28;20040;-69
2023/07/22 09:22:03;;;;;;;2.40;2.30;;;21.10;99.90;;;21.61;69.24;101149.41;5050763;28;20485;-69
2023/07/22 09:24:31;;;;;;;3.05;2.95;;;21.20;99.90;;;21.54;68.67;101151.53;5062061;28;20098;-69
2023/07/22 09:27:00;;;;;;;2.85;2.75;;;21.20;99.90;;;21.26;69.25;101173.38;5054281;28;20048;-69
2023/07/22 09:29:36;;;;;;;3.08;2.97;;;21.00;99.90;;;21.39;70.93;101171.91;5054170;28;20441;-69
2023/07/22 09:32:07;;;;;;;2.88;2.78;;;21.00;99.90;;;21.25;73.05;101168.94;5054795;28;20036;-69
2023/07/22 09:34:35;;;;;;;3.25;3.13;;;20.90;99.90;;;21.05;73.77;101166.25;5054121;28;20509;-69
2023/07/22 09:37:05;;;;;;;2.80;2.70;;;20.70;99.90;;;20.55;78.50;101176.38;5050485;28;20061;-69
2023/07/22 09:39:36;;;;;;;3.63;3.42;;;20.20;99.90;;;20.68;78.45;101187.50;5054055;28;20150;-69
2023/07/22 09:42:06;;;;;;;2.83;2.72;;;20.30;99.90;;;20.69;78.56;101190.13;5054127;28;20043;-68
2023/07/22 09:44:36;;;;;;;3.05;2.95;;;20.30;99.90;;;20.57;80.56;101177.19;5052947;28;20410;-69
2023/07/22 09:47:09;;;;;;;6.45;4.30;;;20.20;99.90;;;20.49;81.10;101168.56;5053991;28;20059;-68
2023/07/22 09:49:43;;;;;;;3.00;2.90;;;20.20;99.90;;;20.21;82.69;101167.03;5053887;28;20115;-68
2023/07/22 09:52:15;;;;;;;2.63;2.53;;;19.80;99.90;;;20.14;82.07;101161.00;5050550;28;20110;-68
2023/07/22 09:54:50;;;;;;;2.70;2.60;;;19.70;99.90;;;20.10;82.02;101163.84;5052848;28;20048;-69
2023/07/22 09:57:22;;;;;;;2.88;2.78;;;19.80;99.90;;;20.10;82.71;101159.34;5052419;28;20052;-68
2023/07/22 09:59:52;;;;;;;2.85;2.75;;;19.70;99.90;;;20.10;82.64;101164.72;5052482;28;20138;-68
2023/07/22 10:02:23;;;;;;;5.45;4.47;;;19.80;99.90;;;20.13;83.13;101169.97;5048944;28;20056;-68
2023/07/22 10:04:53;;;;;;;2.78;2.67;;;19.80;99.90;;;20.19;83.11;101180.50;5053614;28;20760;-68
2023/07/22 10:07:23;;;;;;;6.10;3.17;;;19.80;99.90;;;19.96;81.71;101185.84;5053479;28;20041;-68
2023/07/22 10:09:55;;;;;;;2.60;2.50;;;19.70;99.90;;;19.94;80.72;101201.16;5052391;28;20041;-68
2023/07/22 10:12:25;;;;;;;3.20;3.10;;;19.60;99.90;;;19.97;80.42;101174.19;5053998;28;20041;-68
2023/07/22 10:14:54;;;;;;;2.65;2.55;;;19.70;99.90;;;20.04;79.98;101177.50;5053880;28;20090;-68
2023/07/22 10:17:24;;;;;;;2.92;2.83;;;19.70;99.90;;;20.12;79.79;101170.03;5049569;28;20075;-67
2023/07/22 10:19:54;;;;;;;2.42;2.33;;;19.80;99.90;;;20.26;80.08;101178.47;5052223;28;20056;-68
2023/07/22 10:22:23;;;;;;;3.67;3.47;;;19.90;99.90;;;20.28;79.62;101179.28;5050241;28;20503;-68